Saturday, May 26, 2018, 12:13 PM GMT
Back to Local

CYZX, Greenwood, N. S.

Location: , , Canada Lat: 44.983
Local Time: 12:13 PM GMT (12:13 GMT) Lon: -64.917
Time Zone: GMT Elev: 91 ft

Show me the last for .
Show Decoded

2018-05-26 11:50 METAR CYZX 261150Z 00000KT 10SM -SHRA SCT030 OVC100 15/13 A2963 RMK SC3AC5
                 SLP035 =
2018-05-26 11:00 METAR CYZX 261100Z 24003KT 15SM SCT030 BKN100 14/11 A2962 RMK SC3AC4 SLP029 =
2018-05-26 10:39 METAR CYZX 261039Z 24002KT 15SM SCT030 BKN100 14/12 A2961 RMK SC3AC4 SLP027 =
2018-05-26 10:10 METAR CYZX 261010Z 27003KT 10SM -SHRA SCT030 OVC100 14/11 A2961 RMK SC3AC5
                 PRESRR SLP026 =
2018-05-26 10:00 METAR CYZX 261000Z 24004KT 15SM BKN100 14/11 A2960 RMK AC7 SLP022 =
2018-05-26 09:00 METAR CYZX 260900Z 25004KT 15SM BKN150 13/11 A2959 RMK AC6 SLP019 =
2018-05-26 08:00 METAR CYZX 260800Z 00000KT 15SM BKN170 12/11 A2958 RMK AC7 SLP016 =
2018-05-26 07:00 METAR CYZX 260700Z 19002KT 15SM SCT130 12/10 A2958 RMK AC3 SLP018 =
2018-05-26 06:00 METAR CYZX 260600Z 06003KT 15SM FEW130 BKN250 12/11 A2959 RMK AC2CI4 SLP020 =
2018-05-26 05:00 METAR CYZX 260500Z 16002KT 15SM SCT130 BKN210 13/11 A2959 RMK AC3CI3 SLP022 =
2018-05-26 04:00 METAR CYZX 260400Z 35002KT 15SM SCT130 14/12 A2959 RMK AC4 SLP019 =
2018-05-26 03:00 METAR CYZX 260300Z 18002KT 15SM BKN130 BKN210 14/11 A2961 RMK AC5CI2 SLP029 =
2018-05-26 02:00 METAR CYZX 260200Z 36008KT 15SM BKN130 15/11 A2960 RMK AC6 SLP026 =
2018-05-26 01:00 METAR CYZX 260100Z 00000KT 15SM OVC100 16/10 A2963 RMK AC8 SLP034 =
2018-05-26 00:00 METAR CYZX 260000Z 05004KT 15SM SCT130 OVC250 15/13 A2958 RMK AC3CI5 SLP017 =
2018-05-25 23:00 METAR CYZX 252300Z 03005KT 15SM FEW040 BKN250 16/13 A2957 RMK SC2CI5 SLP013 =
2018-05-25 22:00 METAR CYZX 252200Z 05008KT 15SM FEW040 BKN140 BKN210 20/14 A2955 RMK SC2AC4CI2
                 SLP008 =
2018-05-25 21:00 METAR CYZX 252100Z 23005KT 15SM BKN140 BKN210 24/13 A2955 RMK AC6CI2 SLP007 =
2018-05-25 20:00 METAR CYZX 252000Z 24010KT 15SM BKN140 BKN210 24/12 A2957 RMK AC6CI2 SLP013 =
2018-05-25 19:00 METAR CYZX 251900Z 25010G18KT 15SM BKN140 BKN210 23/14 A2959 RMK AC6CI2 SLP021 =
2018-05-25 18:00 METAR CYZX 251800Z 24016KT 15SM BKN140 BKN210 21/11 A2962 RMK AC5CI2 SLP030 =
2018-05-25 17:00 METAR CYZX 251700Z 27007KT 15SM BKN140 17/11 A2964 RMK AC6 SLP039 =
2018-05-25 16:00 METAR CYZX 251600Z 26008KT 15SM BKN140 17/11 A2967 RMK AC5 SLP048 =
2018-05-25 15:00 METAR CYZX 251500Z 22004KT 15SM SCT023 BKN110 14/11 A2970 RMK SC4AC2 SLP057 =
2018-05-25 14:53 METAR CYZX 251453Z 20005KT 15SM SCT023 BKN110 14/11 A2971 RMK SC4AC2 SLP062 =
2018-05-25 14:00 METAR CYZX 251400Z 21002KT 15SM FEW008 BKN023 12/10 A2973 RMK SF2SC5 SLP070 =
2018-05-25 13:45 METAR CYZX 251345Z 13004KT 15SM FEW008 BKN023 12/08 A2974 RMK SF2SC5 SLP072 =
2018-05-25 13:00 METAR CYZX 251300Z 08005KT 10SM -SHRA OVC020 10/09 A2977 RMK SC8 OCNL DIST LTGCC
                 NW SLP082 =
2018-05-25 12:31 METAR CYZX 251231Z 35005KT 10SM -SHRA OVC020 11/09 A2980 RMK SC8 PRESRR SLP092 =

Support USWX by starting your Amazon purchase here.